| time (UTC) | temp F | wind direction | speed knots | gust knots | rain 1hr in | rain 24hr in | rain mn in | humidity % | barometer mb |
| 20260505014003 | 88 | 0.0 | 0.0 | 0.00 | 0.00 | 0.00 | 50 | 932.5 | |
| 20260505012956 | 88 | 0.0 | 0.0 | 0.00 | 0.00 | 0.00 | 49 | 932.3 | |
| 20260505011949 | 88 | 0.0 | 0.0 | 0.00 | 0.00 | 0.00 | 48 | 932.2 | |
| 20260505010943 | 88 | 0.0 | 0.0 | 0.00 | 0.00 | 0.00 | 48 | 932.1 | |
| 20260505005936 | 88 | 0.0 | 0.0 | 0.00 | 0.00 | 0.00 | 47 | 932.0 | |
| 20260505004929 | 88 | 0.0 | 0.0 | 0.00 | 0.00 | 0.00 | 47 | 931.9 | |
| 20260505003922 | 88 | 0.0 | 0.0 | 0.00 | 0.00 | 0.00 | 47 | 931.9 | |
| 20260505002915 | 88 | 0.0 | 0.0 | 0.00 | 0.00 | 0.00 | 47 | 931.8 | |
| 20260505001909 | 88 | 0.0 | 0.0 | 0.00 | 0.00 | 0.00 | 47 | 931.8 | |
| 20260505000902 | 88 | 0.0 | 0.0 | 0.00 | 0.00 | 0.00 | 47 | 931.7 | |
| 20260504235855 | 88 | 0.0 | 0.0 | 0.00 | 0.00 | 0.00 | 47 | 931.7 | |
| 20260504234848 | 88 | 0.0 | 0.0 | 0.00 | 0.00 | 0.00 | 47 | 931.7 | |
| 20260504233841 | 88 | 0.0 | 0.0 | 0.00 | 0.00 | 0.00 | 47 | 931.4 | |
| 20260504232834 | 88 | 0.0 | 0.0 | 0.00 | 0.00 | 0.00 | 46 | 931.1 | |
| 20260504231827 | 88 | 0.0 | 0.0 | 0.00 | 0.00 | 0.00 | 46 | 931.0 | |
| 20260504230820 | 88 | 0.0 | 0.0 | 0.00 | 0.00 | 0.00 | 46 | 930.9 | |
| 20260504225814 | 88 | 0.0 | 0.0 | 0.00 | 0.00 | 0.00 | 46 | 930.8 | |
| 20260504224807 | 88 | 0.0 | 0.0 | 0.00 | 0.00 | 0.00 | 46 | 930.7 | |
| 20260504223800 | 88 | 0.0 | 0.0 | 0.00 | 0.00 | 0.00 | 46 | 930.8 | |
| 20260504222753 | 88 | 0.0 | 0.0 | 0.00 | 0.00 | 0.00 | 45 | 930.6 | |
| 20260504221746 | 88 | 0.0 | 0.0 | 0.00 | 0.00 | 0.00 | 46 | 930.6 | |
| 20260504220739 | 88 | 0.0 | 0.0 | 0.00 | 0.00 | 0.00 | 45 | 930.6 | |
| 20260504215733 | 88 | 0.0 | 0.0 | 0.00 | 0.00 | 0.00 | 45 | 930.5 | |
| 20260504214725 | 88 | 0.0 | 0.0 | 0.00 | 0.00 | 0.00 | 44 | 930.5 | |
| 20260504213719 | 88 | 0.0 | 0.0 | 0.00 | 0.00 | 0.00 | 44 | 930.7 | |
| 20260504212712 | 88 | 0.0 | 0.0 | 0.00 | 0.00 | 0.00 | 44 | 930.8 | |
| 20260504211702 | 88 | 0.0 | 0.0 | 0.00 | 0.00 | 0.00 | 44 | 930.8 | |
| 20260504210655 | 88 | 0.0 | 0.0 | 0.00 | 0.00 | 0.00 | 44 | 930.9 | |
| 20260504205648 | 89 | 0.0 | 0.0 | 0.00 | 0.00 | 0.00 | 44 | 930.9 | |
| 20260504204641 | 89 | 0.0 | 0.0 | 0.00 | 0.00 | 0.00 | 44 | 931.0 | |
| 20260504203634 | 89 | 0.0 | 0.0 | 0.00 | 0.00 | 0.00 | 44 | 931.0 | |
| 20260504202627 | 89 | 0.0 | 0.0 | 0.00 | 0.00 | 0.00 | 43 | 931.0 | |
| 20260504201621 | 89 | 0.0 | 0.0 | 0.00 | 0.00 | 0.00 | 43 | 930.9 | |
| 20260504200614 | 89 | 0.0 | 0.0 | 0.00 | 0.00 | 0.00 | 43 | 931.1 | |
| 20260504195607 | 89 | 0.0 | 0.0 | 0.00 | 0.00 | 0.00 | 43 | 931.2 | |
| 20260504194600 | 89 | 0.0 | 0.0 | 0.00 | 0.00 | 0.00 | 42 | 931.0 | |
| 20260504193554 | 89 | 0.0 | 0.0 | 0.00 | 0.00 | 0.00 | 41 | 930.9 | |
| 20260504192546 | 89 | 0.0 | 0.0 | 0.00 | 0.00 | 0.00 | 42 | 930.7 | |
| 20260504191539 | 89 | 0.0 | 0.0 | 0.00 | 0.00 | 0.00 | 41 | 930.7 | |
| 20260504190533 | 89 | 0.0 | 0.0 | 0.00 | 0.00 | 0.00 | 40 | 930.8 | |
| 20260504185531 | 89 | 0.0 | 0.0 | 0.00 | 0.00 | 0.00 | 40 | 931.0 | |
| 20260504184518 | 89 | 0.0 | 0.0 | 0.00 | 0.00 | 0.00 | 40 | 931.1 | |
| 20260504183512 | 89 | 0.0 | 0.0 | 0.00 | 0.00 | 0.00 | 39 | 931.4 | |
| 20260504182505 | 89 | 0.0 | 0.0 | 0.00 | 0.00 | 0.00 | 38 | 931.2 | |
| 20260504181458 | 89 | 0.0 | 0.0 | 0.00 | 0.00 | 0.00 | 38 | 931.3 | |
| 20260504180451 | 89 | 0.0 | 0.0 | 0.00 | 0.00 | 0.00 | 38 | 931.2 | |
| 20260504175444 | 89 | 0.0 | 0.0 | 0.00 | 0.00 | 0.00 | 38 | 931.2 | |
| 20260504174437 | 89 | 0.0 | 0.0 | 0.00 | 0.00 | 0.00 | 39 | 931.3 | |
| 20260504173431 | 89 | 0.0 | 0.0 | 0.00 | 0.00 | 0.00 | 39 | 931.4 | |
| 20260504172424 | 89 | 0.0 | 0.0 | 0.00 | 0.00 | 0.00 | 38 | 931.5 | |
| 20260504171417 | 88 | 0.0 | 0.0 | 0.00 | 0.00 | 0.00 | 37 | 931.6 | |
| 20260504170410 | 89 | 0.0 | 0.0 | 0.00 | 0.00 | 0.00 | 36 | 931.5 | |
| 20260504160328 | 90 | 0.0 | 0.0 | 0.00 | 0.00 | 0.00 | 38 | 931.6 | |
| 20260504150247 | 90 | 0.0 | 0.0 | 0.00 | 0.00 | 0.00 | 45 | 930.9 | |
| 20260504141212 | 90 | 0.0 | 0.0 | 0.00 | 0.00 | 0.00 | 40 | 929.5 | |
| 20260504130124 | 91 | 0.0 | 0.0 | 0.00 | 0.00 | 0.00 | 31 | 928.1 | |
| 20260504081810 | 90 | 0.0 | 0.0 | 0.00 | 0.00 | 0.00 | 43 | 929.4 | |
| 20260504080803 | 90 | 0.0 | 0.0 | 0.00 | 0.00 | 0.00 | 43 | 929.6 | |
| 20260504050600 | 87 | 0.0 | 0.0 | 0.00 | 0.00 | 0.00 | 50 | 932.6 | |
| 20260504045553 | 87 | 0.0 | 0.0 | 0.00 | 0.00 | 0.00 | 51 | 932.7 | |
| 20260504044546 | 87 | 0.0 | 0.0 | 0.00 | 0.00 | 0.00 | 52 | 932.8 | |
| 20260504043539 | 87 | 0.0 | 0.0 | 0.00 | 0.00 | 0.00 | 51 | 932.9 | |
| 20260504042532 | 87 | 0.0 | 0.0 | 0.00 | 0.00 | 0.00 | 51 | 932.9 | |
| 20260504041525 | 87 | 0.0 | 0.0 | 0.00 | 0.00 | 0.00 | 52 | 933.1 | |
| 20260504040518 | 87 | 0.0 | 0.0 | 0.00 | 0.00 | 0.00 | 52 | 933.1 | |
| 20260504035511 | 87 | 0.0 | 0.0 | 0.00 | 0.00 | 0.00 | 55 | 933.1 | |
| 20260504034505 | 87 | 0.0 | 0.0 | 0.00 | 0.00 | 0.00 | 51 | 933.2 | |
| 20260504033458 | 87 | 0.0 | 0.0 | 0.00 | 0.00 | 0.00 | 53 | 933.3 | |
| 20260504032451 | 87 | 0.0 | 0.0 | 0.00 | 0.00 | 0.00 | 53 | 933.3 | |
| 20260504031444 | 87 | 0.0 | 0.0 | 0.00 | 0.00 | 0.00 | 53 | 933.2 | |
| 20260504030437 | 87 | 0.0 | 0.0 | 0.00 | 0.00 | 0.00 | 54 | 933.1 | |
| 20260504025430 | 87 | 0.0 | 0.0 | 0.00 | 0.00 | 0.00 | 54 | 933.0 | |
| 20260504024424 | 87 | 0.0 | 0.0 | 0.00 | 0.00 | 0.00 | 55 | 933.0 | |
| 20260504023417 | 87 | 0.0 | 0.0 | 0.00 | 0.00 | 0.00 | 54 | 932.9 | |
| 20260504022410 | 87 | 0.0 | 0.0 | 0.00 | 0.00 | 0.00 | 55 | 932.9 | |
| 20260504021403 | 87 | 0.0 | 0.0 | 0.00 | 0.00 | 0.00 | 54 | 932.7 | |
| 20260504020356 | 87 | 0.0 | 0.0 | 0.00 | 0.00 | 0.00 | 55 | 932.8 | |
| 20260504015349 | 87 | 0.0 | 0.0 | 0.00 | 0.00 | 0.00 | 55 | 932.6 |